createdAt,value
2022-08-07T00:02:36.475Z,65.10
2022-08-07T00:05:04.016Z,62.47
2022-08-07T00:07:40.518Z,59.70
2022-08-07T00:10:26.481Z,64.27
2022-08-07T00:12:58.044Z,69.70
2022-08-07T00:15:37.940Z,64.77
2022-08-07T00:18:19.697Z,60.43
2022-08-07T00:20:49.560Z,63.00
2022-08-07T00:23:17.976Z,59.00
2022-08-07T00:25:52.511Z,71.80
2022-08-07T00:28:33.541Z,61.83
2022-08-07T00:31:04.571Z,64.03
2022-08-07T00:33:34.991Z,67.77
2022-08-07T00:36:03.513Z,71.37
2022-08-07T00:38:33.205Z,69.03
2022-08-07T00:41:03.204Z,68.27
2022-08-07T00:43:59.326Z,66.87
2022-08-07T00:46:20.046Z,67.63
2022-08-07T00:48:51.822Z,65.37
2022-08-07T00:51:20.735Z,75.27
2022-08-07T00:53:50.428Z,67.00
2022-08-07T00:56:20.772Z,67.20
2022-08-07T00:58:49.611Z,60.17
2022-08-07T01:01:18.440Z,71.90
2022-08-07T01:03:56.693Z,60.80
2022-08-07T01:06:28.803Z,64.70
2022-08-07T01:08:58.545Z,58.23
2022-08-07T01:12:23.261Z,63.87
2022-08-07T01:14:28.706Z,59.03
2022-08-07T01:16:57.335Z,64.23
2022-08-07T01:19:25.576Z,68.23
2022-08-07T01:21:55.581Z,60.23
2022-08-07T01:24:23.953Z,56.57
2022-08-07T01:26:52.778Z,59.40
2022-08-07T01:29:22.292Z,62.80
2022-08-07T01:31:50.613Z,51.57
2022-08-07T01:34:19.125Z,55.37
2022-08-07T01:36:52.635Z,58.47
2022-08-07T01:39:41.087Z,59.83
2022-08-07T01:42:39.220Z,59.57
2022-08-07T01:45:04.043Z,52.17
2022-08-07T01:48:19.072Z,61.57
2022-08-07T01:50:28.553Z,54.47
2022-08-07T01:52:58.394Z,50.17
2022-08-07T01:55:28.757Z,53.27
2022-08-07T01:58:06.516Z,53.20
2022-08-07T02:00:49.292Z,46.50
2022-08-07T02:03:26.420Z,40.77
2022-08-07T02:06:08.937Z,41.23
2022-08-07T02:08:55.914Z,39.77
2022-08-07T02:11:30.882Z,43.53
2022-08-07T02:14:35.489Z,31.63
2022-08-07T02:17:03.161Z,38.17
2022-08-07T02:20:06.688Z,37.13
2022-08-07T02:22:20.677Z,34.50
2022-08-07T02:24:54.244Z,32.73
2022-08-07T02:27:24.271Z,32.67
2022-08-07T02:29:54.647Z,29.17
2022-08-07T02:32:26.975Z,33.43
2022-08-07T02:34:58.608Z,32.53
2022-08-07T02:37:34.271Z,31.73
2022-08-07T02:40:31.222Z,26.53
2022-08-07T02:42:54.702Z,27.37
2022-08-07T02:45:59.001Z,25.40
2022-08-07T02:48:15.557Z,29.90
2022-08-07T02:50:44.571Z,24.53
2022-08-07T02:53:13.585Z,22.70
2022-08-07T02:56:03.413Z,24.73
2022-08-07T02:58:34.126Z,20.37
2022-08-07T03:01:02.961Z,23.40
2022-08-07T03:03:49.276Z,21.53
2022-08-07T03:06:25.975Z,17.47
2022-08-07T03:09:01.326Z,17.57
2022-08-07T03:11:29.620Z,20.10
2022-08-07T03:14:02.666Z,20.60
2022-08-07T03:16:31.010Z,17.30
2022-08-07T03:18:59.308Z,15.53
2022-08-07T03:21:27.577Z,19.60
2022-08-07T03:24:20.376Z,16.67
2022-08-07T03:26:51.279Z,17.13
2022-08-07T03:29:28.387Z,12.67
2022-08-07T03:31:57.455Z,12.93
2022-08-07T03:34:27.554Z,16.63
2022-08-07T03:36:57.370Z,16.17
2022-08-07T03:39:42.205Z,11.53
2022-08-07T03:42:14.539Z,11.27
2022-08-07T03:44:53.067Z,15.70
2022-08-07T03:47:22.795Z,11.73
2022-08-07T03:49:52.263Z,10.67
2022-08-07T03:52:22.785Z,9.87
2022-08-07T03:54:57.458Z,8.23
2022-08-07T03:58:34.045Z,12.07
2022-08-07T04:00:17.432Z,8.37
2022-08-07T04:02:49.546Z,8.03
2022-08-07T04:05:17.856Z,9.43
2022-08-07T04:07:52.558Z,6.53
2022-08-07T04:10:20.826Z,6.70
2022-08-07T04:12:52.459Z,7.33
2022-08-07T04:15:23.918Z,5.70
2022-08-07T04:18:31.784Z,5.90
2022-08-07T04:20:54.403Z,6.57
2022-08-07T04:23:23.383Z,4.43
2022-08-07T04:26:11.415Z,4.27
2022-08-07T04:28:39.887Z,4.83
2022-08-07T04:31:20.097Z,5.23
2022-08-07T04:34:00.337Z,4.87
2022-08-07T04:36:28.653Z,5.93
2022-08-07T04:38:58.098Z,6.23
2022-08-07T04:41:26.556Z,3.67
2022-08-07T04:44:11.863Z,4.30
2022-08-07T04:47:04.155Z,4.87
2022-08-07T04:49:39.199Z,7.97
2022-08-07T04:52:09.572Z,4.50
2022-08-07T04:54:41.080Z,4.67
2022-08-07T04:58:07.701Z,3.47
2022-08-07T05:00:14.482Z,3.13
2022-08-07T05:02:49.877Z,3.50
2022-08-07T05:05:53.130Z,2.23
2022-08-07T05:08:08.489Z,3.50
2022-08-07T05:10:37.167Z,3.53
2022-08-07T05:14:44.431Z,3.13
2022-08-07T05:15:55.914Z,2.53
2022-08-07T05:18:29.675Z,3.53
2022-08-07T05:20:58.904Z,3.67
2022-08-07T05:23:30.925Z,2.93
2022-08-07T05:26:13.050Z,4.07
2022-08-07T05:28:48.470Z,4.33
2022-08-07T05:31:18.518Z,3.60
2022-08-07T05:33:51.184Z,2.37
2022-08-07T05:36:35.645Z,1.43
2022-08-07T05:40:04.948Z,1.97
2022-08-07T05:42:02.809Z,2.17
2022-08-07T05:44:32.947Z,2.83
2022-08-07T05:47:01.347Z,1.60
2022-08-07T05:49:40.861Z,1.50
2022-08-07T05:52:11.784Z,2.10
2022-08-07T05:54:44.411Z,2.10
2022-08-07T05:57:22.238Z,1.47
2022-08-07T05:59:55.735Z,1.53
2022-08-07T06:02:29.059Z,1.60
2022-08-07T06:04:59.911Z,1.23
2022-08-07T06:08:13.017Z,1.37
2022-08-07T06:10:16.508Z,1.87
2022-08-07T06:12:44.851Z,2.20
2022-08-07T06:15:15.961Z,1.10
2022-08-07T06:17:53.620Z,1.20
2022-08-07T06:20:25.496Z,1.43
2022-08-07T06:23:02.090Z,1.50
2022-08-07T06:25:54.749Z,2.03
2022-08-07T06:28:27.080Z,1.00
2022-08-07T06:30:56.537Z,2.17
2022-08-07T06:33:26.801Z,1.10
2022-08-07T06:36:12.224Z,1.13
2022-08-07T06:38:59.494Z,2.50
2022-08-07T06:42:02.861Z,1.50
2022-08-07T06:44:20.488Z,1.50
2022-08-07T06:46:53.274Z,1.00
2022-08-07T06:49:28.390Z,1.80
2022-08-07T06:51:59.589Z,1.23
2022-08-07T06:55:32.758Z,0.80
2022-08-07T06:57:39.380Z,1.30
2022-08-07T07:00:18.327Z,1.10
2022-08-07T07:02:48.524Z,1.20
2022-08-07T07:06:04.638Z,1.10
2022-08-07T07:08:18.732Z,1.00
2022-08-07T07:10:57.143Z,1.30
2022-08-07T07:13:55.582Z,3.17
2022-08-07T07:16:19.799Z,1.73
2022-08-07T07:18:49.496Z,3.20
2022-08-07T07:21:19.748Z,2.80
2022-08-07T07:24:06.533Z,2.53
2022-08-07T07:26:38.170Z,4.40
2022-08-07T07:29:39.904Z,4.57
2022-08-07T07:31:59.258Z,3.83
2022-08-07T07:34:30.785Z,4.90
2022-08-07T07:37:14.408Z,4.87
2022-08-07T07:39:54.338Z,5.60
2022-08-07T07:42:32.546Z,6.57
2022-08-07T07:45:01.114Z,6.10
2022-08-07T07:47:29.439Z,5.40
2022-08-07T07:50:33.338Z,5.27
2022-08-07T07:52:47.186Z,5.40
2022-08-07T07:55:16.928Z,3.83
2022-08-07T07:57:53.106Z,4.27
2022-08-07T08:00:31.427Z,3.90
2022-08-07T08:03:16.282Z,3.43
2022-08-07T08:05:57.620Z,3.57
2022-08-07T08:08:34.909Z,4.27
2022-08-07T08:11:08.418Z,3.60
2022-08-07T08:13:53.181Z,7.77
2022-08-07T08:16:25.076Z,5.33
2022-08-07T08:18:53.674Z,6.50
2022-08-07T08:22:00.488Z,4.77
2022-08-07T08:24:46.597Z,3.97
2022-08-07T08:27:16.752Z,4.17
2022-08-07T08:29:55.636Z,4.30
2022-08-07T08:32:38.620Z,4.20
2022-08-07T08:35:08.912Z,6.50
2022-08-07T08:38:00.325Z,5.40
2022-08-07T08:40:28.853Z,4.00
2022-08-07T08:43:00.491Z,7.20
2022-08-07T08:45:41.684Z,14.73
2022-08-07T08:48:20.690Z,18.20
2022-08-07T08:50:51.734Z,15.77
2022-08-07T08:53:21.881Z,14.33
2022-08-07T08:55:53.143Z,7.77
2022-08-07T08:58:29.641Z,7.07
2022-08-07T09:01:01.339Z,9.90
2022-08-07T09:03:48.064Z,8.90
2022-08-07T09:06:21.300Z,9.07
2022-08-07T09:08:50.916Z,10.93
2022-08-07T09:11:24.771Z,4.93
2022-08-07T09:14:12.311Z,6.77
2022-08-07T09:16:46.607Z,6.57
2022-08-07T09:19:51.609Z,8.53
2022-08-07T09:24:29.451Z,7.63
2022-08-07T09:25:14.534Z,6.60
2022-08-07T09:27:59.797Z,9.67
2022-08-07T09:30:31.815Z,10.70
2022-08-07T09:33:05.320Z,12.90
2022-08-07T09:36:04.741Z,15.37
2022-08-07T09:38:27.588Z,16.57
2022-08-07T09:40:59.981Z,14.03
2022-08-07T09:44:03.411Z,17.87
2022-08-07T09:47:50.518Z,21.67
2022-08-07T09:50:00.762Z,21.00
2022-08-07T09:52:15.231Z,19.10
2022-08-07T09:54:46.196Z,22.47
2022-08-07T09:57:25.653Z,26.43
2022-08-07T10:00:02.699Z,23.83
2022-08-07T10:02:55.875Z,22.77
2022-08-07T10:06:00.040Z,22.93
2022-08-07T10:08:49.592Z,23.40
2022-08-07T10:12:01.754Z,23.03
2022-08-07T10:14:14.596Z,23.07
2022-08-07T10:17:02.688Z,24.83
2022-08-07T10:19:38.659Z,26.80
2022-08-07T10:22:33.527Z,28.37
2022-08-07T10:25:14.289Z,20.30
2022-08-07T10:27:51.400Z,19.97
2022-08-07T10:30:20.752Z,23.00
2022-08-07T10:32:59.642Z,17.43
2022-08-07T10:35:53.562Z,22.77
2022-08-07T10:38:42.211Z,18.73
2022-08-07T10:41:14.041Z,18.47
2022-08-07T10:44:07.800Z,15.13
2022-08-07T10:46:38.008Z,16.87
2022-08-07T10:49:10.265Z,17.17
2022-08-07T10:52:02.338Z,17.00
2022-08-07T10:54:31.029Z,14.17
2022-08-07T10:57:04.575Z,15.67
2022-08-07T10:59:37.369Z,16.93
2022-08-07T11:02:12.248Z,16.70
2022-08-07T11:05:03.182Z,17.67
2022-08-07T11:07:59.205Z,29.80
2022-08-07T11:10:30.358Z,16.93
2022-08-07T11:13:01.996Z,18.63
2022-08-07T11:15:32.192Z,17.03
2022-08-07T11:18:03.424Z,16.77
2022-08-07T11:20:35.403Z,18.47
2022-08-07T11:23:07.292Z,21.97
2022-08-07T11:25:48.209Z,19.63
2022-08-07T11:28:19.060Z,16.70
2022-08-07T11:30:48.697Z,19.63
2022-08-07T11:33:59.703Z,20.07
2022-08-07T11:36:15.339Z,23.17
2022-08-07T11:38:55.858Z,20.63
2022-08-07T11:41:29.677Z,24.13
2022-08-07T11:44:18.561Z,22.57
2022-08-07T11:46:50.681Z,25.50
2022-08-07T11:50:11.534Z,26.40
2022-08-07T11:52:37.710Z,31.90
2022-08-07T11:55:13.192Z,23.17
2022-08-07T11:58:00.592Z,22.53
2022-08-07T12:00:31.513Z,27.50
2022-08-07T12:03:41.682Z,20.40
2022-08-07T12:06:37.904Z,20.07
2022-08-07T12:09:09.585Z,22.70
2022-08-07T12:12:09.669Z,19.93
2022-08-07T12:14:36.455Z,21.23
2022-08-07T12:17:07.108Z,16.13
2022-08-07T12:20:02.753Z,17.20
2022-08-07T12:22:46.996Z,17.03
2022-08-07T12:26:21.453Z,16.90
2022-08-07T12:28:30.929Z,14.90
2022-08-07T12:31:01.557Z,20.37
2022-08-07T12:34:01.068Z,14.17
2022-08-07T12:36:20.372Z,13.23
2022-08-07T12:39:09.280Z,16.23
2022-08-07T12:41:52.120Z,15.33
2022-08-07T12:44:21.267Z,10.83
2022-08-07T12:47:00.284Z,17.50
2022-08-07T12:49:44.380Z,10.37
2022-08-07T12:52:22.883Z,10.73
2022-08-07T12:55:00.152Z,13.00
2022-08-07T12:57:39.255Z,15.80
2022-08-07T13:00:33.033Z,14.63
2022-08-07T13:03:09.735Z,15.87
2022-08-07T13:06:03.795Z,11.70
2022-08-07T13:08:39.343Z,11.40
2022-08-07T13:11:10.638Z,11.73
2022-08-07T13:13:50.174Z,12.57
2022-08-07T13:16:22.083Z,10.10
2022-08-07T13:18:53.767Z,10.63
2022-08-07T13:21:51.216Z,11.43
2022-08-07T13:24:12.930Z,8.47
2022-08-07T13:26:46.192Z,8.87
2022-08-07T13:29:16.131Z,8.93
2022-08-07T13:31:57.371Z,7.13
2022-08-07T13:34:35.960Z,13.27
2022-08-07T13:37:10.844Z,6.73
2022-08-07T13:40:33.367Z,7.73
2022-08-07T13:42:29.476Z,6.83
2022-08-07T13:46:07.298Z,6.47
2022-08-07T13:48:05.253Z,7.33
2022-08-07T13:50:45.208Z,7.40
2022-08-07T13:53:25.331Z,5.50
2022-08-07T13:56:04.358Z,6.87
2022-08-07T13:58:56.726Z,4.83
2022-08-07T14:01:25.378Z,4.67
2022-08-07T14:04:07.420Z,7.10
2022-08-07T14:06:38.945Z,4.47
2022-08-07T14:09:07.476Z,5.23
2022-08-07T14:11:53.797Z,2.43
2022-08-07T14:14:28.370Z,5.17
2022-08-07T14:16:57.613Z,3.03
2022-08-07T14:20:43.775Z,4.20
2022-08-07T14:22:34.821Z,3.53
2022-08-07T14:25:05.249Z,3.63
2022-08-07T14:28:12.585Z,2.47
2022-08-07T14:30:32.890Z,3.70
2022-08-07T14:33:04.376Z,5.37
2022-08-07T14:35:45.541Z,3.60
2022-08-07T14:38:26.615Z,2.70
2022-08-07T14:41:00.871Z,3.00
2022-08-07T14:46:31.087Z,3.27
2022-08-07T14:49:57.702Z,2.60
2022-08-07T14:52:03.690Z,2.10
2022-08-07T14:54:41.658Z,2.00
2022-08-07T14:57:14.879Z,2.33
2022-08-07T15:00:03.224Z,2.13
2022-08-07T15:02:34.466Z,1.70
2022-08-07T15:05:03.423Z,2.27
2022-08-07T15:13:13.827Z,2.30
2022-08-07T15:15:43.041Z,2.00
2022-08-07T15:21:04.002Z,1.83
2022-08-07T15:25:02.247Z,1.67
2022-08-07T15:26:28.751Z,1.60
2022-08-07T15:28:59.445Z,2.47
2022-08-07T15:31:57.663Z,2.10
2022-08-07T15:34:28.765Z,1.90
2022-08-07T15:37:02.832Z,1.67
2022-08-07T15:39:56.991Z,4.53
2022-08-07T15:42:51.763Z,1.73
2022-08-07T15:45:56.587Z,1.70
2022-08-07T15:48:18.586Z,1.33
2022-08-07T15:53:51.910Z,1.33
2022-08-07T15:56:21.736Z,0.93
2022-08-07T15:58:55.097Z,1.13
2022-08-07T16:01:24.333Z,2.03
2022-08-07T16:04:14.541Z,1.93
2022-08-07T16:06:44.776Z,0.93
2022-08-07T16:09:22.299Z,1.20
2022-08-07T16:11:57.528Z,1.07
2022-08-07T16:14:34.623Z,2.47
2022-08-07T16:17:15.918Z,3.30
2022-08-07T16:19:59.543Z,2.53
2022-08-07T16:22:38.680Z,2.23
2022-08-07T16:25:52.691Z,1.40
2022-08-07T16:30:05.939Z,1.87
2022-08-07T16:31:52.026Z,0.83
2022-08-07T16:34:09.915Z,1.47
2022-08-07T16:37:02.830Z,1.97
2022-08-07T16:39:49.516Z,1.10
2022-08-07T16:42:27.127Z,1.20
2022-08-07T16:45:15.084Z,1.30
2022-08-07T16:48:02.593Z,1.10
2022-08-07T16:50:44.727Z,1.80
2022-08-07T16:54:01.623Z,1.00
2022-08-07T16:56:20.550Z,1.03
2022-08-07T16:59:10.621Z,0.87
2022-08-07T17:01:52.962Z,3.13
2022-08-07T17:04:29.670Z,2.00
2022-08-07T17:07:03.135Z,1.20
2022-08-07T17:10:08.388Z,1.47
2022-08-07T17:12:34.356Z,1.30
2022-08-07T17:15:05.985Z,1.03
2022-08-07T17:17:46.144Z,1.57
2022-08-07T17:20:21.442Z,1.00
2022-08-07T17:22:50.334Z,2.13
2022-08-07T17:25:51.152Z,3.70
2022-08-07T17:28:11.614Z,4.10
2022-08-07T17:30:58.174Z,7.67
2022-08-07T17:34:08.584Z,9.10
2022-08-07T17:36:20.909Z,5.40
2022-08-07T17:38:56.267Z,6.47
2022-08-07T17:42:04.234Z,8.17
2022-08-07T17:44:33.701Z,5.30
2022-08-07T17:47:08.714Z,5.97
2022-08-07T17:49:46.259Z,3.53
2022-08-07T17:52:20.083Z,4.90
2022-08-07T17:55:04.403Z,4.57
2022-08-07T17:57:58.441Z,3.43
2022-08-07T18:00:33.019Z,4.10
2022-08-07T18:03:09.326Z,1.47
2022-08-07T18:06:01.736Z,2.50
2022-08-07T18:08:31.026Z,2.60
2022-08-07T18:12:06.775Z,2.07
2022-08-07T18:13:51.778Z,2.17
2022-08-07T18:16:31.207Z,3.30
2022-08-07T18:21:07.527Z,2.73
2022-08-07T18:22:03.402Z,3.63
2022-08-07T18:24:37.141Z,2.20
2022-08-07T18:27:11.276Z,2.53
2022-08-07T18:30:06.694Z,4.33
2022-08-07T18:33:10.895Z,3.10
2022-08-07T18:35:51.790Z,1.97
2022-08-07T18:38:56.989Z,4.80
2022-08-07T18:41:21.012Z,5.17
2022-08-07T18:43:57.663Z,6.83
2022-08-07T18:46:29.875Z,7.10
2022-08-07T18:50:19.124Z,2.27
2022-08-07T18:52:37.533Z,3.33
2022-08-07T18:54:43.607Z,2.97
2022-08-07T18:57:30.137Z,3.40
2022-08-07T19:00:04.468Z,4.07
2022-08-07T19:02:55.612Z,2.67
2022-08-07T19:05:27.634Z,1.57
2022-08-07T19:08:18.495Z,2.57
2022-08-07T19:10:51.516Z,2.70
2022-08-07T19:13:25.008Z,3.13
2022-08-07T19:16:05.024Z,2.70
2022-08-07T19:18:46.439Z,2.37
2022-08-07T19:21:47.593Z,1.70
2022-08-07T19:24:06.958Z,3.10
2022-08-07T19:26:55.625Z,2.50
2022-08-07T19:31:03.821Z,3.70
2022-08-07T19:32:25.538Z,2.20
2022-08-07T19:34:59.368Z,2.37
2022-08-07T19:37:57.151Z,1.50
2022-08-07T19:40:16.790Z,1.70
2022-08-07T19:42:58.858Z,1.43
2022-08-07T19:46:04.874Z,2.60
2022-08-07T19:48:18.127Z,2.27
2022-08-07T19:50:53.109Z,1.10
2022-08-07T19:54:32.104Z,1.40
2022-08-07T19:58:03.552Z,3.73
2022-08-07T19:58:59.849Z,3.53
2022-08-07T20:01:52.361Z,1.93
2022-08-07T20:04:31.876Z,2.40
2022-08-07T20:07:09.103Z,2.33
2022-08-07T20:10:36.106Z,2.23
2022-08-07T20:12:31.813Z,1.80
2022-08-07T20:15:03.704Z,3.00
2022-08-07T20:17:35.970Z,2.40
2022-08-07T20:20:07.795Z,1.77
2022-08-07T20:22:40.005Z,1.30
2022-08-07T20:25:12.537Z,3.23
2022-08-07T20:27:58.285Z,2.20
2022-08-07T20:30:30.891Z,1.83
2022-08-07T20:33:00.868Z,4.30
2022-08-07T20:35:34.261Z,2.43
2022-08-07T20:38:06.325Z,2.73
2022-08-07T20:40:41.180Z,3.80
2022-08-07T20:43:19.690Z,3.77
2022-08-07T20:46:27.105Z,5.63
2022-08-07T20:48:58.031Z,5.50
2022-08-07T20:51:30.018Z,5.63
2022-08-07T20:54:03.245Z,6.37
2022-08-07T20:56:41.125Z,5.17
2022-08-07T21:00:05.317Z,7.43
2022-08-07T21:02:05.757Z,6.47
2022-08-07T21:04:52.735Z,4.00
2022-08-07T21:07:29.057Z,4.37
2022-08-07T21:10:00.208Z,6.73
2022-08-07T21:12:31.165Z,3.70
2022-08-07T21:15:01.304Z,3.87
2022-08-07T21:18:05.963Z,2.60
2022-08-07T21:20:29.525Z,2.30
2022-08-07T21:23:07.724Z,2.77
2022-08-07T21:25:43.948Z,2.27
2022-08-07T21:28:48.212Z,2.17
2022-08-07T21:31:15.566Z,3.17
2022-08-07T21:33:45.851Z,3.27
2022-08-07T21:36:31.415Z,3.50
2022-08-07T21:39:46.469Z,5.63
2022-08-07T21:42:02.470Z,2.20
2022-08-07T21:44:33.647Z,3.13
2022-08-07T21:47:12.106Z,1.70
2022-08-07T21:50:01.905Z,2.20
2022-08-07T21:52:38.430Z,2.07
2022-08-07T21:55:11.105Z,4.50
2022-08-07T21:57:44.793Z,2.47
2022-08-07T22:00:22.434Z,2.80
2022-08-07T22:02:55.207Z,4.10
2022-08-07T22:05:44.619Z,1.70
2022-08-07T22:08:14.331Z,4.13
2022-08-07T22:10:47.079Z,2.00
2022-08-07T22:13:16.104Z,1.50
2022-08-07T22:16:42.598Z,1.63
2022-08-07T22:18:34.995Z,2.10
2022-08-07T22:21:08.976Z,3.57
2022-08-07T22:23:44.861Z,2.20
2022-08-07T22:26:14.176Z,1.20
2022-08-07T22:28:48.302Z,2.67
2022-08-07T22:31:56.032Z,1.20
2022-08-07T22:34:13.675Z,1.77
2022-08-07T22:36:46.432Z,2.60
2022-08-07T22:39:18.905Z,1.13
2022-08-07T22:42:03.098Z,3.10
2022-08-07T22:44:38.797Z,1.47
2022-08-07T22:47:30.238Z,1.23
2022-08-07T22:50:05.802Z,1.40
2022-08-07T22:52:43.406Z,1.23
2022-08-07T22:55:22.828Z,0.77
2022-08-07T22:58:04.118Z,1.10
2022-08-07T23:00:33.370Z,1.17
2022-08-07T23:03:11.709Z,0.70
2022-08-07T23:06:10.186Z,0.80
2022-08-07T23:08:46.151Z,1.37
2022-08-07T23:11:23.533Z,1.00
2022-08-07T23:14:10.515Z,1.07
2022-08-07T23:16:54.920Z,1.90
2022-08-07T23:19:51.941Z,0.73
2022-08-07T23:22:24.504Z,0.70
2022-08-07T23:24:56.206Z,2.30
2022-08-07T23:27:33.817Z,4.73
2022-08-07T23:30:38.748Z,0.90
2022-08-07T23:34:36.480Z,1.57
2022-08-07T23:35:48.975Z,1.67
2022-08-07T23:38:42.367Z,1.87
2022-08-07T23:41:15.739Z,1.43
2022-08-07T23:44:01.953Z,0.70
2022-08-07T23:46:38.787Z,0.93
2022-08-07T23:49:17.912Z,1.17
2022-08-07T23:52:58.287Z,1.13
2022-08-07T23:54:45.982Z,1.50
2022-08-07T23:57:19.196Z,0.90
